Bookmark and Share
Track history (hours):
 

Sumifukumaru No.5

Last reported at 2014-Apr-16 13:28 UTC. Time now 2014-Apr-18 03:07 UTC.
Position N 34°08' E 134°59'.

Length 75 m; draft 4.4 m.

Type: Cargo ship. MMSI: 431001371.

NotesDate/timePositionNaut miles runAvg speedWind from/ knotsBaromVisibWave heightAir tempDewpointWater temp
2014-Apr-16 13:28N 34°08' E 134°59'1110.4
2014-Apr-16 12:23N 34°19' E 134°59'810.1
2014-Apr-16 11:33N 34°27' E 135°01'9 9.1
2014-Apr-16 10:33N 34°36' E 135°02'11 0.4
2014-Apr-15 10:33N 34°39' E 134°50'1514.8
2014-Apr-15 09:33N 34°36' E 135°07'1312.8
2014-Apr-15 08:32N 34°40' E 135°22'2 0.4
2014-Apr-15 03:34N 34°42' E 135°24'0 0.0
2014-Apr-15 02:34N 34°42' E 135°24'0 0.0
2014-Apr-15 01:33N 34°42' E 135°24'1 0.3
2014-Apr-14 22:34N 34°41' E 135°24'3 3.0
2014-Apr-14 21:34N 34°39' E 135°21'0 0.0
2014-Apr-14 20:34N 34°39' E 135°21'0 0.0
2014-Apr-14 19:34N 34°39' E 135°21'0 0.0
2014-Apr-14 18:34N 34°39' E 135°21'0 0.0
2014-Apr-14 17:34N 34°39' E 135°21'0 0.0
2014-Apr-14 16:34N 34°39' E 135°21'0 0.0
2014-Apr-14 15:34N 34°39' E 135°21'0 0.0
2014-Apr-14 14:33N 34°39' E 135°21'0 0.0
2014-Apr-14 13:34N 34°39' E 135°21'0 0.0
2014-Apr-14 11:33N 34°39' E 135°21'0 0.0
2014-Apr-14 10:33N 34°39' E 135°21'0 0.0
2014-Apr-14 09:33N 34°39' E 135°21'9 9.4
2014-Apr-14 08:33N 34°31' E 135°15'214 8.4
2014-Apr-13 07:16N 34°51' E 139°33'811.3
2014-Apr-13 06:33N 34°52' E 139°43'1210.8
2014-Apr-13 05:26N 34°53' E 139°57'74 9.3
2014-Apr-12 21:25N 35°58' E 140°43'3 3.8
2014-Apr-12 20:33N 35°56' E 140°40'0 0.0
2014-Apr-12 19:32N 35°56' E 140°40'0 0.0
2014-Apr-12 18:32N 35°56' E 140°40'0 0.0
2014-Apr-12 17:33N 35°56' E 140°40'0 0.0
2014-Apr-12 16:33N 35°56' E 140°40'0 0.0
2014-Apr-12 15:32N 35°56' E 140°40'0 0.1
2014-Apr-12 14:33N 35°56' E 140°40'0 0.0
2014-Apr-12 13:33N 35°56' E 140°40'0 0.0
2014-Apr-12 12:32N 35°56' E 140°40'0 0.0
2014-Apr-12 11:30N 35°56' E 140°40'0 0.1
2014-Apr-12 10:33N 35°56' E 140°40'0 0.1
2014-Apr-12 09:33N 35°55' E 140°40'0 0.1
2014-Apr-12 08:13N 35°56' E 140°40'0 0.2
2014-Apr-12 07:32N 35°56' E 140°40'0 0.0
2014-Apr-12 06:33N 35°56' E 140°40'0 0.0
2014-Apr-12 05:34N 35°56' E 140°40'0 0.0
2014-Apr-12 04:33N 35°56' E 140°40'0 0.0
2014-Apr-12 03:33N 35°56' E 140°40'0 0.0
2014-Apr-12 02:33N 35°56' E 140°40'0 0.0
2014-Apr-12 01:33N 35°56' E 140°40'0 0.0
2014-Apr-12 00:33N 35°56' E 140°40'0 0.0
2014-Apr-11 23:34N 35°56' E 140°40'0 0.0
2014-Apr-11 22:32N 35°56' E 140°40'0 0.0
2014-Apr-11 21:33N 35°56' E 140°40'4 4.2
2014-Apr-11 20:33N 35°56' E 140°45'3110.2
2014-Apr-11 17:33N 35°25' E 140°42'1312.9
2014-Apr-11 16:33N 35°15' E 140°33'1413.1
2014-Apr-11 15:29N 35°04' E 140°21'1212.6
2014-Apr-11 14:33N 34°58' E 140°09'  

Dump ship's entire track history

sailing weather and tide predictions

Sumifukumaru No.5 — JD3058 — position and weather